Time;durP1;ratioP1;P1;durP2;ratioP2;P2;SDS_P1;SDS_P2;PMS_P1;PMS_P2;Temp;Humidity;BMP_temperature;BMP_pressure;BME280_temperature;BME280_humidity;BME280_pressure;Samples;Min_cycle;Max_cycle;Signal;HPM_P1;HPM_P2
2023/07/13 00:01:54;;;;;;;1.45;1.15;;;;;;;18.06;68.13;100540.16;5011487;28;20053;-81
2023/07/13 00:04:24;;;;;;;4.60;0.70;;;;;;;18.01;67.79;100537.75;5011483;28;20426;-81
2023/07/13 00:06:52;;;;;;;2.90;0.98;;;;;;;17.99;67.84;100544.94;5011627;28;20154;-81
2023/07/13 00:09:21;;;;;;;1.77;1.52;;;;;;;17.93;67.71;100538.19;5010982;28;20041;-81
2023/07/13 00:11:53;;;;;;;1.90;1.00;;;;;;;17.85;67.89;100535.06;5007820;28;20042;-81
2023/07/13 00:14:20;;;;;;;2.42;0.82;;;;;;;17.87;67.96;100543.78;5001015;28;20049;-81
2023/07/13 00:16:47;;;;;;;2.53;0.63;;;;;;;17.82;67.77;100539.69;5000600;28;20544;-81
2023/07/13 00:19:16;;;;;;;1.13;0.95;;;;;;;17.80;67.62;100539.75;5010892;28;20073;-81
2023/07/13 00:21:43;;;;;;;1.05;0.90;;;;;;;17.75;67.44;100537.28;5009639;28;20414;-80
2023/07/13 00:24:14;;;;;;;3.00;0.73;;;;;;;17.73;67.67;100538.31;5010668;28;20058;-81
2023/07/13 00:26:44;;;;;;;0.80;0.70;;;;;;;17.69;67.42;100542.91;5009139;28;20100;-82
2023/07/13 00:29:11;;;;;;;1.05;0.68;;;;;;;17.66;67.63;100542.22;5010998;28;20574;-81
2023/07/13 00:31:38;;;;;;;0.73;0.60;;;;;;;17.61;67.59;100526.59;5009807;28;20157;-81
2023/07/13 00:34:05;;;;;;;1.00;0.70;;;;;;;17.58;67.44;100536.47;5014449;28;20115;-81
2023/07/13 00:36:34;;;;;;;1.83;0.60;;;;;;;17.54;67.24;100533.13;5014547;28;20146;-81
2023/07/13 00:39:01;;;;;;;2.45;0.65;;;;;;;17.42;67.29;100523.22;5009201;28;20499;-81
2023/07/13 00:41:28;;;;;;;3.17;1.50;;;;;;;17.44;67.28;100540.66;4997208;28;20050;-81
2023/07/13 00:43:55;;;;;;;0.75;0.75;;;;;;;17.41;67.07;100532.03;5014496;28;20065;-81
2023/07/13 00:46:25;;;;;;;1.02;0.70;;;;;;;17.37;67.02;100525.22;5014167;28;20049;-81
2023/07/13 00:48:55;;;;;;;1.40;0.60;;;;;;;17.33;67.14;100536.84;5014333;28;20096;-81
2023/07/13 00:51:28;;;;;;;2.22;0.60;;;;;;;17.29;67.13;100538.81;5014518;28;20068;-81
2023/07/13 00:54:01;;;;;;;0.75;0.75;;;;;;;17.25;67.20;100550.47;5010682;28;20046;-82
2023/07/13 00:56:29;;;;;;;3.63;0.80;;;;;;;17.21;67.21;100557.66;5003420;28;20081;-81
2023/07/13 00:58:57;;;;;;;4.00;0.93;;;;;;;17.13;67.25;100546.63;5013840;28;20057;-82
2023/07/13 01:01:24;;;;;;;1.10;0.90;;;;;;;17.12;67.18;100555.47;5013899;28;20135;-80
2023/07/13 01:03:51;;;;;;;0.73;0.73;;;;;;;17.04;67.22;100536.53;5014049;28;20042;-80
2023/07/13 01:06:18;;;;;;;2.45;0.82;;;;;;;17.06;67.46;100553.16;5013653;28;20049;-81
2023/07/13 01:08:45;;;;;;;1.55;0.80;;;;;;;17.01;67.40;100548.06;5013494;28;20129;-81
2023/07/13 01:11:21;;;;;;;1.48;0.70;;;;;;;16.99;67.46;100552.59;5013784;28;20180;-81
2023/07/13 01:13:48;;;;;;;1.33;0.80;;;;;;;16.97;67.61;100554.44;5000823;28;20053;-80
2023/07/13 01:16:20;;;;;;;1.60;0.90;;;;;;;16.93;67.65;100552.88;5013572;28;20077;-81
2023/07/13 01:18:48;;;;;;;7.25;1.20;;;;;;;16.91;67.52;100553.91;5013772;28;20104;-81
2023/07/13 01:21:18;;;;;;;3.35;1.00;;;;;;;16.77;67.74;100530.81;5013592;28;20077;-81
2023/07/13 01:23:45;;;;;;;1.55;0.70;;;;;;;16.82;67.73;100548.13;5005979;28;20097;-81
2023/07/13 01:26:12;;;;;;;1.63;0.70;;;;;;;16.79;67.94;100550.91;5010380;28;20077;-81
2023/07/13 01:28:39;;;;;;;2.63;0.75;;;;;;;16.76;68.03;100550.16;5013427;28;20050;-81
2023/07/13 01:31:08;;;;;;;3.75;0.90;;;;;;;16.74;68.12;100555.53;5013532;28;20476;-81
2023/07/13 01:33:35;;;;;;;2.08;0.52;;;;;;;16.70;68.20;100553.94;5013653;28;20461;-81
2023/07/13 01:36:02;;;;;;;1.45;0.60;;;;;;;16.55;68.06;100536.22;5013140;28;20569;-81
2023/07/13 01:38:30;;;;;;;2.65;0.70;;;;;;;16.62;67.85;100553.44;5013436;28;20119;-81
2023/07/13 01:40:57;;;;;;;0.90;0.77;;;;;;;16.62;67.97;100556.97;5013248;28;20046;-81
2023/07/13 01:43:24;;;;;;;2.33;0.70;;;;;;;16.60;68.11;100565.88;5013240;28;20046;-81
2023/07/13 01:45:51;;;;;;;0.90;0.55;;;;;;;16.58;68.07;100559.81;5013074;28;20667;-81
2023/07/13 01:48:19;;;;;;;1.50;1.08;;;;;;;16.53;68.58;100561.78;5012920;28;20636;-81
2023/07/13 01:50:48;;;;;;;3.90;0.90;;;;;;;16.54;68.49;100571.44;5013115;28;20085;-81
2023/07/13 01:53:15;;;;;;;1.65;0.68;;;;;;;16.51;68.59;100567.16;5012945;28;20078;-82
2023/07/13 01:55:44;;;;;;;0.90;0.68;;;;;;;16.44;68.37;100551.69;5012930;28;20042;-81
2023/07/13 01:58:11;;;;;;;1.70;0.70;;;;;;;16.46;68.56;100555.09;5009986;28;20077;-81
2023/07/13 02:00:38;;;;;;;1.63;0.70;;;;;;;16.46;68.37;100557.75;5012713;28;20049;-80
2023/07/13 02:03:05;;;;;;;0.80;0.63;;;;;;;16.40;68.73;100554.47;5013079;28;20057;-81
2023/07/13 02:05:32;;;;;;;0.65;0.63;;;;;;;16.42;68.39;100568.44;5012873;28;20046;-80
2023/07/13 02:07:59;;;;;;;2.47;0.75;;;;;;;16.39;68.56;100575.59;5012875;28;20104;-81
2023/07/13 02:10:26;;;;;;;2.88;0.60;;;;;;;16.37;68.62;100578.31;5013202;28;20095;-81
2023/07/13 02:12:55;;;;;;;3.28;1.00;;;;;;;16.36;68.48;100584.53;5012900;28;20050;-81
2023/07/13 02:15:22;;;;;;;3.33;0.80;;;;;;;16.34;68.46;100578.47;5012340;28;20406;-81
2023/07/13 02:17:49;;;;;;;1.50;0.80;;;;;;;16.31;68.40;100575.13;5012471;28;20092;-81
2023/07/13 02:20:16;;;;;;;1.45;0.70;;;;;;;16.28;68.48;100567.34;5011152;28;20076;-80
2023/07/13 02:22:43;;;;;;;1.65;0.73;;;;;;;16.26;68.37;100559.50;5011266;28;20081;-81
2023/07/13 02:25:10;;;;;;;1.27;0.70;;;;;;;16.26;68.33;100559.50;5012524;28;20159;-81
2023/07/13 02:27:37;;;;;;;0.75;0.60;;;;;;;16.21;68.42;100558.00;5012933;28;20607;-81
2023/07/13 02:30:07;;;;;;;1.67;0.70;;;;;;;16.20;68.49;100570.34;5012433;28;20046;-80
2023/07/13 02:32:35;;;;;;;1.05;0.73;;;;;;;16.17;68.43;100565.22;5008889;28;20042;-81
2023/07/13 02:35:02;;;;;;;0.93;0.65;;;;;;;16.15;68.58;100574.94;5012135;28;20050;-81
2023/07/13 02:37:29;;;;;;;0.73;0.73;;;;;;;16.12;68.72;100581.22;5012200;28;20046;-81
2023/07/13 02:39:56;;;;;;;0.93;0.60;;;;;;;16.10;68.54;100583.06;5012296;28;20046;-81
2023/07/13 02:42:24;;;;;;;1.58;0.82;;;;;;;16.08;68.44;100584.91;5012350;28;20410;-81
2023/07/13 02:44:51;;;;;;;2.40;0.50;;;;;;;16.03;68.69;100592.16;5011898;28;20046;-81
2023/07/13 02:47:19;;;;;;;2.15;0.60;;;;;;;16.05;68.75;100584.19;5012141;28;20054;-81
2023/07/13 02:49:46;;;;;;;2.30;1.10;;;;;;;16.03;68.97;100586.03;5012311;28;20049;-81
2023/07/13 02:52:13;;;;;;;5.55;0.68;;;;;;;15.98;69.19;100583.59;5010597;28;20498;-74
2023/07/13 02:54:40;;;;;;;1.95;0.90;;;;;;;16.00;69.05;100581.75;5007507;28;20086;-73
2023/07/13 02:57:08;;;;;;;1.15;0.85;;;;;;;15.99;69.26;100585.31;5006521;28;20050;-74
2023/07/13 02:59:35;;;;;;;1.35;0.70;;;;;;;15.99;69.27;100589.72;5007719;28;20131;-74
2023/07/13 03:02:03;;;;;;;3.08;0.75;;;;;;;15.96;69.48;100591.56;5007421;28;20064;-73
2023/07/13 03:04:30;;;;;;;3.85;0.68;;;;;;;15.96;69.53;100586.28;5007902;28;20862;-73
2023/07/13 03:06:58;;;;;;;3.30;0.70;;;;;;;15.96;69.67;100596.81;5006610;28;20084;-74
2023/07/13 03:09:25;;;;;;;1.38;0.70;;;;;;;15.96;69.97;100601.25;5007576;28;20132;-73
2023/07/13 03:11:54;;;;;;;1.38;0.80;;;;;;;15.96;70.05;100602.09;5005981;28;20077;-76
2023/07/13 03:14:22;;;;;;;2.90;0.70;;;;;;;15.97;70.28;100602.97;5005613;28;20054;-73
2023/07/13 03:16:49;;;;;;;5.50;0.90;;;;;;;15.98;70.47;100607.31;5007499;28;20143;-73
2023/07/13 03:19:16;;;;;;;2.95;0.73;;;;;;;15.99;70.62;100601.09;5007578;28;21561;-74
2023/07/13 03:21:45;;;;;;;2.38;0.93;;;;;;;16.01;70.87;100603.69;5007455;28;20576;-74
2023/07/13 03:24:12;;;;;;;3.83;0.80;;;;;;;16.00;70.84;100605.47;5007765;28;20078;-74
2023/07/13 03:26:39;;;;;;;1.45;0.80;;;;;;;16.03;71.24;100610.59;5007601;28;20116;-74
2023/07/13 03:29:06;;;;;;;1.42;0.95;;;;;;;16.06;71.33;100612.25;5004757;28;20078;-74
2023/07/13 03:31:36;;;;;;;2.60;1.05;;;;;;;16.06;71.50;100604.34;5007579;28;20116;-74
2023/07/13 03:34:03;;;;;;;1.35;0.70;;;;;;;16.10;71.64;100613.81;5007644;28;20386;-74
2023/07/13 03:36:32;;;;;;;2.17;1.23;;;;;;;16.11;71.69;100615.56;5007180;28;20054;-74
2023/07/13 03:39:03;;;;;;;1.08;0.70;;;;;;;16.13;71.75;100611.03;5007444;28;20054;-74
2023/07/13 03:41:30;;;;;;;1.67;0.90;;;;;;;16.11;71.91;100605.84;5007291;28;20506;-74
2023/07/13 03:43:57;;;;;;;4.28;2.00;;;;;;;16.16;72.06;100611.75;5007633;28;20057;-75
2023/07/13 03:46:24;;;;;;;2.85;0.93;;;;;;;16.18;72.17;100607.28;5007235;28;20057;-74
2023/07/13 03:48:51;;;;;;;3.47;0.90;;;;;;;16.21;72.31;100616.00;5007829;28;20093;-74
2023/07/13 03:51:19;;;;;;;2.63;1.10;;;;;;;16.21;72.38;100608.94;5005778;28;20053;-74
2023/07/13 03:53:48;;;;;;;1.90;0.70;;;;;;;16.26;72.51;100620.13;5006011;28;20081;-73
2023/07/13 03:56:18;;;;;;;2.60;1.00;;;;;;;16.29;72.52;100619.16;5006417;28;20992;-74
2023/07/13 03:58:47;;;;;;;2.65;1.30;;;;;;;16.31;72.49;100627.84;5006714;28;20112;-75
2023/07/13 04:01:16;;;;;;;4.75;2.20;;;;;;;16.34;72.73;100622.44;5006779;28;20660;-74
2023/07/13 04:03:44;;;;;;;3.22;1.40;;;;;;;16.36;72.97;100621.44;5007277;28;20131;-73
2023/07/13 04:06:20;;;;;;;3.72;1.23;;;;;;;16.41;72.80;100626.50;5008796;28;20108;-74
2023/07/13 04:08:50;;;;;;;2.38;1.10;;;;;;;16.41;72.65;100629.97;5011001;28;20768;-75
2023/07/13 04:11:19;;;;;;;6.00;1.00;;;;;;;16.44;72.79;100628.13;5010765;28;20046;-75
2023/07/13 04:13:47;;;;;;;5.00;1.20;;;;;;;16.47;72.90;100628.84;5010999;28;20092;-74
2023/07/13 04:16:14;;;;;;;1.50;1.20;;;;;;;16.50;72.79;100626.06;5010611;28;20057;-74
2023/07/13 04:18:42;;;;;;;3.55;1.08;;;;;;;16.33;72.87;100599.63;5010880;28;20486;-74
2023/07/13 04:21:09;;;;;;;2.97;1.00;;;;;;;16.57;73.00;100645.13;5010488;28;20042;-74
2023/07/13 04:23:36;;;;;;;11.38;1.40;;;;;;;16.59;73.04;100648.53;5010637;28;20042;-74
2023/07/13 04:26:04;;;;;;;2.45;1.33;;;;;;;16.54;73.08;100626.81;5009401;28;20042;-74
2023/07/13 04:28:32;;;;;;;4.93;0.95;;;;;;;16.65;72.95;100629.81;5010675;28;20049;-74
2023/07/13 04:30:59;;;;;;;1.92;0.98;;;;;;;16.59;72.88;100622.16;5010493;28;20054;-74
2023/07/13 04:33:27;;;;;;;2.55;1.08;;;;;;;16.70;73.10;100637.50;5010402;28;20081;-74
2023/07/13 04:35:57;;;;;;;2.08;1.08;;;;;;;16.72;72.99;100636.50;5009573;28;20049;-74
2023/07/13 04:38:27;;;;;;;5.28;2.13;;;;;;;16.76;73.02;100632.84;5009783;28;20060;-74
2023/07/13 04:40:56;;;;;;;7.47;1.55;;;;;;;16.79;72.97;100640.63;5010406;28;20124;-74
2023/07/13 04:43:23;;;;;;;2.83;1.30;;;;;;;16.81;73.10;100641.38;5008297;28;20108;-74
2023/07/13 04:45:52;;;;;;;7.50;1.40;;;;;;;16.84;73.01;100650.94;5010513;28;20749;-75
2023/07/13 04:48:19;;;;;;;2.70;1.17;;;;;;;16.89;72.74;100653.38;5010407;28;20128;-76
2023/07/13 04:50:47;;;;;;;14.32;1.52;;;;;;;16.92;72.87;100650.59;5010097;28;20096;-74
2023/07/13 04:53:14;;;;;;;1.75;1.00;;;;;;;16.94;73.01;100639.03;5007750;28;20057;-74
2023/07/13 04:55:41;;;;;;;3.72;1.00;;;;;;;16.94;72.94;100631.13;5006911;28;20096;-73
2023/07/13 04:58:08;;;;;;;4.60;1.15;;;;;;;17.00;73.12;100648.44;5009710;28;20104;-73
2023/07/13 05:00:35;;;;;;;5.13;1.08;;;;;;;17.03;72.87;100648.28;5009953;28;20085;-73
2023/07/13 05:03:04;;;;;;;5.15;0.90;;;;;;;16.96;72.85;100634.53;5009784;28;20054;-73
2023/07/13 05:05:32;;;;;;;6.35;1.05;;;;;;;17.09;72.57;100646.22;5009629;28;20050;-73
2023/07/13 05:07:59;;;;;;;2.15;1.05;;;;;;;17.03;72.82;100629.81;5009808;28;20054;-73
2023/07/13 05:10:26;;;;;;;3.58;0.90;;;;;;;17.16;73.06;100651.19;5009617;28;20108;-75
2023/07/13 05:12:53;;;;;;;2.70;0.80;;;;;;;17.16;72.71;100638.88;5009934;28;20503;-74
2023/07/13 05:15:22;;;;;;;3.20;1.25;;;;;;;17.23;72.84;100648.19;5009689;28;20089;-74
2023/07/13 05:17:50;;;;;;;2.03;1.02;;;;;;;17.27;72.90;100640.97;5009181;28;20046;-74
2023/07/13 05:20:20;;;;;;;2.28;0.90;;;;;;;17.24;72.77;100630.56;5009518;28;20108;-73
2023/07/13 05:22:47;;;;;;;1.33;0.80;;;;;;;17.34;72.42;100642.41;5009689;28;20135;-73
2023/07/13 05:25:15;;;;;;;3.55;1.10;;;;;;;17.38;72.60;100640.47;5009468;28;20049;-73
2023/07/13 05:27:42;;;;;;;5.15;0.70;;;;;;;17.41;72.66;100643.78;5009300;28;20054;-73
2023/07/13 05:30:11;;;;;;;2.78;0.88;;;;;;;17.45;72.57;100645.38;5009620;28;20057;-74
2023/07/13 05:32:38;;;;;;;3.58;1.02;;;;;;;17.38;72.52;100624.63;5009187;28;20053;-73
2023/07/13 05:35:06;;;;;;;6.55;2.20;;;;;;;17.54;72.41;100652.00;5009523;28;20045;-74
2023/07/13 05:37:35;;;;;;;2.28;1.40;;;;;;;17.54;72.23;100638.78;5009076;28;20061;-73
2023/07/13 05:40:02;;;;;;;3.08;0.82;;;;;;;17.66;72.23;100650.53;5009485;28;20108;-73
2023/07/13 05:42:31;;;;;;;4.32;1.00;;;;;;;17.68;72.30;100657.44;5008338;28;20139;-73
2023/07/13 05:44:58;;;;;;;3.30;0.70;;;;;;;17.75;71.70;100664.13;5008943;28;20054;-73
2023/07/13 05:47:25;;;;;;;4.55;0.70;;;;;;;17.80;71.53;100661.28;5008905;28;20050;-73
2023/07/13 05:49:52;;;;;;;3.60;1.35;;;;;;;17.86;71.35;100660.13;5008837;28;20149;-73
2023/07/13 05:52:19;;;;;;;2.35;1.08;;;;;;;17.91;71.12;100658.94;5008945;28;20104;-73
2023/07/13 05:54:47;;;;;;;1.17;0.70;;;;;;;17.96;71.25;100662.22;5009370;28;20054;-74
2023/07/13 05:57:14;;;;;;;3.22;0.63;;;;;;;18.00;71.02;100649.69;5008881;28;20042;-73
2023/07/13 05:59:41;;;;;;;2.30;0.73;;;;;;;18.05;70.91;100652.97;5008886;28;20513;-73
2023/07/13 06:02:10;;;;;;;1.98;0.55;;;;;;;18.08;70.74;100644.03;5008708;28;20108;-74
2023/07/13 06:04:37;;;;;;;3.97;0.50;;;;;;;18.12;70.38;100646.41;5007683;28;20046;-73
2023/07/13 06:07:04;;;;;;;2.20;0.80;;;;;;;18.15;70.14;100648.88;5007246;28;20054;-73
2023/07/13 06:09:31;;;;;;;7.25;0.90;;;;;;;18.16;70.26;100645.34;5006795;28;20557;-73
2023/07/13 06:11:59;;;;;;;2.20;0.60;;;;;;;18.22;70.09;100641.53;5008752;28;20103;-73
2023/07/13 06:14:26;;;;;;;6.05;0.90;;;;;;;18.24;69.32;100650.19;5008527;28;20584;-74
2023/07/13 06:16:54;;;;;;;3.83;0.60;;;;;;;18.27;69.08;100644.78;5008676;28;20046;-73
2023/07/13 06:19:21;;;;;;;4.65;0.57;;;;;;;18.31;69.35;100645.47;5008441;28;20112;-73
2023/07/13 06:21:48;;;;;;;4.20;0.65;;;;;;;18.31;69.25;100646.31;5008537;28;20070;-73
2023/07/13 06:24:15;;;;;;;5.28;0.52;;;;;;;18.35;68.89;100649.66;5008511;28;20138;-73
2023/07/13 06:26:42;;;;;;;3.17;0.50;;;;;;;18.37;68.86;100650.44;5008734;28;20131;-72
2023/07/13 06:29:10;;;;;;;3.33;0.50;;;;;;;18.38;68.78;100652.13;5006026;28;20050;-73
2023/07/13 06:31:37;;;;;;;4.22;0.60;;;;;;;18.44;68.33;100654.44;5007064;28;20054;-74
2023/07/13 06:34:04;;;;;;;3.08;0.50;;;;;;;18.45;68.27;100656.16;5008499;28;20046;-73
2023/07/13 06:36:31;;;;;;;7.25;1.50;;;;;;;18.48;68.04;100661.28;5006742;28;20097;-73
2023/07/13 06:38:58;;;;;;;2.22;0.50;;;;;;;18.50;67.86;100656.78;5007763;28;20077;-74
2023/07/13 06:41:26;;;;;;;2.30;0.50;;;;;;;18.56;67.92;100667.03;5008017;28;20050;-73
2023/07/13 06:43:53;;;;;;;3.15;0.75;;;;;;;18.58;67.74;100662.50;5006824;28;20042;-73
2023/07/13 06:46:23;;;;;;;6.60;0.68;;;;;;;18.60;67.51;100657.97;5008025;28;20046;-73
2023/07/13 06:48:50;;;;;;;5.15;0.50;;;;;;;18.63;67.59;100656.97;5008205;28;20116;-74
2023/07/13 06:51:17;;;;;;;2.35;0.60;;;;;;;18.59;67.13;100650.16;5008099;28;20053;-73
2023/07/13 06:53:44;;;;;;;13.40;1.42;;;;;;;18.68;66.56;100664.66;5008135;28;20042;-73
2023/07/13 06:56:12;;;;;;;3.50;0.50;;;;;;;18.70;66.27;100662.78;5007157;28;20088;-76
2023/07/13 06:58:39;;;;;;;4.50;0.45;;;;;;;18.73;65.73;100667.94;5007695;28;20045;-74
2023/07/13 07:01:06;;;;;;;6.18;0.52;;;;;;;18.75;65.68;100661.63;5007913;28;20514;-74
2023/07/13 07:03:35;;;;;;;3.80;1.10;;;;;;;18.80;65.30;100670.16;5007688;28;20100;-74
2023/07/13 07:06:02;;;;;;;2.83;0.40;;;;;;;18.80;64.79;100674.59;5006263;28;20042;-74
2023/07/13 07:08:29;;;;;;;4.80;0.45;;;;;;;18.88;64.50;100667.97;5005776;28;20053;-73
2023/07/13 07:10:56;;;;;;;2.72;0.85;;;;;;;18.93;64.59;100670.38;5006373;28;20046;-74
2023/07/13 07:13:23;;;;;;;4.30;0.60;;;;;;;19.00;64.73;100665.56;5007636;28;20045;-74
2023/07/13 07:15:51;;;;;;;2.25;0.50;;;;;;;19.06;64.51;100670.53;5007996;28;20518;-74
2023/07/13 07:18:18;;;;;;;3.17;0.75;;;;;;;19.14;64.67;100672.75;5007846;28;20077;-75
2023/07/13 07:20:46;;;;;;;1.58;0.30;;;;;;;19.21;64.68;100675.00;5007738;28;20403;-74
2023/07/13 07:23:14;;;;;;;4.03;0.40;;;;;;;19.31;63.66;100680.59;5007710;28;20050;-74
2023/07/13 07:25:41;;;;;;;1.33;0.28;;;;;;;19.40;63.30;100680.09;5007683;28;20054;-73
2023/07/13 07:28:09;;;;;;;1.95;0.40;;;;;;;19.50;63.29;100669.84;5007772;28;20057;-73
2023/07/13 07:30:36;;;;;;;3.60;0.73;;;;;;;19.60;63.22;100673.63;5007627;28;20108;-74
2023/07/13 07:33:03;;;;;;;7.53;0.45;;;;;;;19.70;62.66;100680.16;5007100;28;20418;-74
2023/07/13 07:35:30;;;;;;;4.05;0.30;;;;;;;19.78;62.05;100669.13;5007543;28;20046;-73
2023/07/13 07:37:58;;;;;;;2.60;0.40;;;;;;;19.87;61.80;100670.38;5007407;28;20103;-73
2023/07/13 07:40:26;;;;;;;3.15;0.35;;;;;;;19.97;61.76;100666.22;5009650;28;20124;-74
2023/07/13 07:42:53;;;;;;;0.82;0.30;;;;;;;20.05;61.61;100671.06;5011058;28;20049;-73
2023/07/13 07:45:21;;;;;;;2.30;0.30;;;;;;;20.11;61.10;100666.25;5011297;28;20561;-74
2023/07/13 07:47:48;;;;;;;1.45;0.30;;;;;;;20.21;61.09;100664.75;5011418;28;20042;-73
2023/07/13 07:50:15;;;;;;;2.58;0.40;;;;;;;20.31;60.12;100673.00;5011037;28;20046;-74
2023/07/13 07:52:44;;;;;;;8.77;0.30;;;;;;;20.38;60.75;100674.34;5011166;28;20042;-74
2023/07/13 07:55:12;;;;;;;5.68;0.60;;;;;;;20.49;59.62;100678.13;5010691;28;20562;-74
2023/07/13 07:57:39;;;;;;;3.03;0.38;;;;;;;20.53;59.30;100669.94;5009934;28;20049;-74
2023/07/13 08:00:08;;;;;;;2.67;0.40;;;;;;;20.63;59.14;100679.03;5010861;28;20050;-74
2023/07/13 08:02:35;;;;;;;3.75;0.30;;;;;;;20.73;58.65;100681.97;5008992;28;20430;-73
2023/07/13 08:05:02;;;;;;;4.10;0.63;;;;;;;20.81;58.37;100681.50;5011092;28;20561;-73
2023/07/13 08:07:31;;;;;;;4.35;0.40;;;;;;;20.88;58.29;100678.34;5010986;28;20127;-74
2023/07/13 08:09:58;;;;;;;2.53;0.40;;;;;;;20.96;58.00;100674.34;5011043;28;20054;-74
2023/07/13 08:12:26;;;;;;;0.65;0.30;;;;;;;21.00;57.81;100671.38;5011119;28;20631;-74
2023/07/13 08:14:57;;;;;;;2.45;0.30;;;;;;;21.10;57.72;100679.63;5010094;28;20502;-74
2023/07/13 08:17:24;;;;;;;4.18;0.30;;;;;;;21.16;57.45;100676.59;5009706;28;20081;-73
2023/07/13 08:19:52;;;;;;;1.13;0.45;;;;;;;21.23;58.00;100683.22;5010809;28;20081;-74
2023/07/13 08:22:19;;;;;;;3.28;0.30;;;;;;;21.25;56.99;100678.63;5008963;28;20050;-75
2023/07/13 08:24:47;;;;;;;0.57;0.30;;;;;;;21.31;57.39;100685.38;5011012;28;20533;-73
2023/07/13 08:27:14;;;;;;;3.30;0.32;;;;;;;21.36;56.67;100687.72;5010121;28;20049;-74
2023/07/13 08:29:43;;;;;;;3.78;0.50;;;;;;;21.41;55.58;100694.50;5010673;28;20050;-74
2023/07/13 08:32:10;;;;;;;1.85;0.30;;;;;;;21.47;55.57;100696.75;5010687;28;20045;-74
2023/07/13 08:34:38;;;;;;;1.25;0.43;;;;;;;21.51;54.85;100702.69;5010416;28;20137;-73
2023/07/13 08:37:05;;;;;;;3.88;0.30;;;;;;;21.51;55.03;100686.75;5010738;28;20541;-73
2023/07/13 08:39:32;;;;;;;3.10;0.40;;;;;;;21.59;55.71;100699.53;5010131;28;20131;-74
2023/07/13 08:42:03;;;;;;;3.00;0.40;;;;;;;21.65;55.43;100710.63;5010611;28;20050;-74
2023/07/13 08:44:40;;;;;;;1.00;0.30;;;;;;;21.70;55.51;100705.84;5008938;28;20084;-73
2023/07/13 08:47:11;;;;;;;1.80;0.30;;;;;;;21.75;55.66;100705.56;5009145;28;20057;-74
2023/07/13 08:49:39;;;;;;;3.17;0.30;;;;;;;21.77;54.72;100696.53;5010190;28;20061;-74
2023/07/13 08:52:13;;;;;;;1.67;0.30;;;;;;;21.82;54.45;100700.69;5007812;28;20053;-73
2023/07/13 08:54:45;;;;;;;2.20;0.20;;;;;;;21.86;54.47;100705.72;5007519;28;20042;-74
2023/07/13 08:57:15;;;;;;;2.72;0.40;;;;;;;21.89;54.17;100702.84;5009980;28;20054;-74
2023/07/13 08:59:42;;;;;;;1.17;0.20;;;;;;;21.94;53.86;100713.16;5009093;28;20139;-74
2023/07/13 09:02:28;;;;;;;1.98;0.22;;;;;;;21.97;53.71;100700.53;5009905;28;20121;-74
2023/07/13 09:05:00;;;;;;;2.22;0.30;;;;;;;22.00;53.58;100704.78;5009872;28;20046;-73
2023/07/13 09:07:40;;;;;;;2.67;0.25;;;;;;;22.05;52.82;100701.78;5008742;28;20208;-74
2023/07/13 09:10:15;;;;;;;0.63;0.20;;;;;;;22.06;52.57;100700.81;5008049;28;20533;-74
2023/07/13 09:12:58;;;;;;;1.73;0.30;;;;;;;22.10;52.88;100699.69;5010010;28;20085;-74
2023/07/13 09:15:31;;;;;;;0.68;0.22;;;;;;;22.14;52.54;100699.38;5009321;28;20050;-73
2023/07/13 09:18:05;;;;;;;1.13;0.20;;;;;;;22.15;51.49;100698.41;5007668;28;20054;-73
2023/07/13 09:20:36;;;;;;;2.05;0.40;;;;;;;22.23;52.31;100705.91;5009469;28;20061;-73
2023/07/13 09:23:08;;;;;;;1.85;0.20;;;;;;;22.23;52.34;100701.44;5009798;28;20449;-74
2023/07/13 09:25:36;;;;;;;3.30;0.25;;;;;;;22.31;52.79;100708.88;5009042;28;20806;-74
2023/07/13 09:28:12;;;;;;;1.35;0.22;;;;;;;22.34;51.74;100703.38;5009700;28;20119;-73
2023/07/13 09:30:46;;;;;;;1.52;0.30;;;;;;;22.33;52.24;100701.66;5009566;28;20057;-74
2023/07/13 09:33:15;;;;;;;1.73;0.20;;;;;;;22.43;51.45;100717.84;5009659;28;20054;-74
2023/07/13 09:35:42;;;;;;;0.93;0.30;;;;;;;22.46;51.02;100714.97;5008944;28;20391;-73
2023/07/13 09:38:14;;;;;;;5.55;0.30;;;;;;;22.48;50.69;100715.69;5008784;28;20053;-73
2023/07/13 09:40:52;;;;;;;2.47;0.52;;;;;;;22.38;49.94;100694.19;5008796;28;20644;-74
2023/07/13 09:43:21;;;;;;;2.55;0.20;;;;;;;22.51;49.87;100711.97;5008530;28;20151;-75
2023/07/13 09:45:49;;;;;;;1.15;0.20;;;;;;;22.47;49.95;100703.34;5009298;28;20050;-74
2023/07/13 09:48:19;;;;;;;4.72;0.40;;;;;;;22.50;50.22;100700.47;5007251;28;20045;-74
2023/07/13 09:50:46;;;;;;;1.77;0.17;;;;;;;22.50;50.08;100699.63;5007260;28;20046;-74
2023/07/13 09:53:15;;;;;;;2.33;0.20;;;;;;;22.47;50.26;100692.72;5007273;28;20057;-74
2023/07/13 09:55:44;;;;;;;6.78;1.75;;;;;;;22.52;50.47;100709.22;5008946;28;20050;-74
2023/07/13 09:58:14;;;;;;;1.67;0.20;;;;;;;22.51;50.36;100702.16;5009131;28;20482;-74
2023/07/13 10:00:43;;;;;;;3.10;0.15;;;;;;;22.54;49.67;100704.66;5008663;28;20679;-75
2023/07/13 10:03:21;;;;;;;3.30;0.20;;;;;;;22.56;50.12;100702.72;5009000;28;20049;-73
2023/07/13 10:05:51;;;;;;;2.55;0.40;;;;;;;22.58;49.36;100700.81;5007668;28;20078;-73
2023/07/13 10:08:20;;;;;;;2.35;0.30;;;;;;;22.59;49.63;100696.31;5007314;28;20076;-73
2023/07/13 10:10:53;;;;;;;3.40;0.30;;;;;;;22.63;49.72;100703.16;5007745;28;20050;-73
2023/07/13 10:13:34;;;;;;;3.95;0.30;;;;;;;22.65;49.05;100690.56;5007580;28;20050;-74
2023/07/13 10:16:01;;;;;;;0.32;0.20;;;;;;;22.68;49.26;100701.00;5007947;28;20050;-73
2023/07/13 10:18:36;;;;;;;2.97;0.22;;;;;;;22.71;49.53;100700.78;5008652;28;20494;-74
2023/07/13 10:21:13;;;;;;;2.83;0.20;;;;;;;22.76;49.03;100700.47;5007521;28;20050;-74
2023/07/13 10:23:41;;;;;;;0.73;0.20;;;;;;;22.81;49.09;100695.66;5008341;28;20056;-74
2023/07/13 10:26:16;;;;;;;3.35;0.30;;;;;;;22.84;49.05;100709.59;5008087;28;20050;-75
2023/07/13 10:28:47;;;;;;;2.30;0.30;;;;;;;22.86;48.84;100705.03;5008595;28;20174;-74
2023/07/13 10:31:17;;;;;;;4.03;0.40;;;;;;;22.88;48.81;100707.56;5007931;28;20399;-74
2023/07/13 10:33:45;;;;;;;2.88;0.60;;;;;;;22.86;48.75;100704.19;5008439;28;20096;-74
2023/07/13 10:36:27;;;;;;;3.22;0.30;;;;;;;22.88;48.75;100707.56;5008223;28;20050;-75
2023/07/13 10:38:57;;;;;;;2.88;0.20;;;;;;;22.87;48.41;100714.72;5007470;28;20050;-74
2023/07/13 10:41:27;;;;;;;1.23;0.20;;;;;;;22.88;48.44;100710.22;5007799;28;20042;-74
2023/07/13 10:43:58;;;;;;;2.35;0.30;;;;;;;22.89;48.36;100714.63;5007384;28;20058;-76
2023/07/13 10:46:27;;;;;;;4.43;0.20;;;;;;;22.91;48.46;100718.03;5007885;28;20058;-74
2023/07/13 10:48:58;;;;;;;1.00;0.20;;;;;;;22.93;48.98;100710.78;5008241;28;20096;-75
2023/07/13 10:51:26;;;;;;;4.03;0.20;;;;;;;22.96;48.58;100709.72;5005637;28;20060;-74
2023/07/13 10:54:23;;;;;;;0.60;0.25;;;;;;;22.98;48.60;100707.81;5004740;28;20100;-74
2023/07/13 10:57:07;;;;;;;2.67;0.22;;;;;;;22.99;48.25;100704.19;5007800;28;20129;-74
2023/07/13 10:59:35;;;;;;;3.30;0.20;;;;;;;22.99;48.41;100707.69;5007285;28;20053;-75
2023/07/13 11:02:13;;;;;;;1.00;0.20;;;;;;;23.00;48.18;100712.06;5007800;28;20136;-74
2023/07/13 11:04:44;;;;;;;1.20;0.20;;;;;;;23.00;48.06;100706.75;5007123;28;20048;-74
2023/07/13 11:07:28;;;;;;;3.53;0.30;;;;;;;23.00;47.59;100704.09;5008072;28;20116;-74
2023/07/13 11:09:57;;;;;;;2.90;0.20;;;;;;;23.00;47.24;100711.22;5007624;28;20045;-74
2023/07/13 11:12:51;;;;;;;3.95;0.20;;;;;;;23.04;47.06;100707.38;5005992;28;20085;-74
2023/07/13 11:15:31;;;;;;;1.10;0.20;;;;;;;23.04;46.66;100705.56;5004544;28;20050;-75
2023/07/13 11:18:02;;;;;;;0.82;0.20;;;;;;;23.04;47.50;100710.03;5006985;28;20407;-74
2023/07/13 11:20:39;;;;;;;3.53;0.20;;;;;;;23.07;46.54;100708.00;5007511;28;20552;-73
2023/07/13 11:23:27;;;;;;;1.55;0.20;;;;;;;;;;5007760;28;20046;-74
2023/07/13 11:25:54;;;;;;;1.40;0.20;;;;;;;23.07;46.39;100708.00;5006398;28;20077;-74
2023/07/13 11:28:27;;;;;;;3.50;0.20;;;;;;;23.08;45.79;100704.41;5007484;28;20740;-74
2023/07/13 11:31:15;;;;;;;0.73;0.10;;;;;;;23.09;46.14;100705.25;5007600;28;20108;-74
2023/07/13 11:34:02;;;;;;;3.20;0.13;;;;;;;23.07;45.06;100723.97;4978766;28;20510;-74
2023/07/13 11:36:43;;;;;;;0.75;0.10;;;;;;;23.06;45.53;100716.97;5005923;28;20050;-75